createdAt,value
2023-01-05T00:01:44.314Z,-1.60
2023-01-05T00:04:12.725Z,-1.60
2023-01-05T00:06:42.841Z,-1.60
2023-01-05T00:09:12.932Z,-1.70
2023-01-05T00:11:58.784Z,-1.70
2023-01-05T00:14:46.584Z,-1.60
2023-01-05T00:17:33.338Z,-1.60
2023-01-05T00:20:19.122Z,-1.60
2023-01-05T00:22:48.410Z,-1.60
2023-01-05T00:25:18.211Z,-1.70
2023-01-05T00:27:48.181Z,-1.70
2023-01-05T00:30:18.688Z,-1.70
2023-01-05T00:32:47.412Z,-1.70
2023-01-05T00:35:16.572Z,-1.70
2023-01-05T00:37:45.516Z,-1.70
2023-01-05T00:40:14.632Z,-1.70
2023-01-05T00:42:43.216Z,-1.80
2023-01-05T00:45:12.432Z,-1.80
2023-01-05T00:47:42.262Z,-1.80
2023-01-05T00:50:13.941Z,-1.80
2023-01-05T00:52:42.420Z,-1.90
2023-01-05T00:55:11.133Z,-1.90
2023-01-05T00:57:39.276Z,-1.90
2023-01-05T01:00:08.721Z,-1.90
2023-01-05T01:02:36.931Z,-1.80
2023-01-05T01:05:07.595Z,-1.80
2023-01-05T01:07:35.906Z,-1.90
2023-01-05T01:10:04.425Z,-1.90
2023-01-05T01:12:32.584Z,-1.90
2023-01-05T01:15:01.993Z,-2.00
2023-01-05T01:17:30.310Z,-2.00
2023-01-05T01:19:58.427Z,-2.00
2023-01-05T01:22:28.043Z,-2.00
2023-01-05T01:24:56.336Z,-2.10
2023-01-05T01:27:24.632Z,-2.10
2023-01-05T01:29:52.792Z,-2.10
2023-01-05T01:32:21.025Z,-2.00
2023-01-05T01:34:49.141Z,-2.10
2023-01-05T01:37:17.320Z,-2.00
2023-01-05T01:39:47.000Z,-2.10
2023-01-05T01:42:15.777Z,-2.10
2023-01-05T01:44:51.499Z,-2.10
2023-01-05T01:47:23.197Z,-2.10
2023-01-05T01:49:51.648Z,-2.10
2023-01-05T01:52:23.473Z,-2.10
2023-01-05T01:54:53.470Z,-2.20
2023-01-05T01:57:22.633Z,-2.30
2023-01-05T01:59:51.140Z,-2.20
2023-01-05T02:02:19.825Z,-2.30
2023-01-05T02:04:48.027Z,-2.30
2023-01-05T02:07:16.806Z,-2.30
2023-01-05T02:09:46.831Z,-2.30
2023-01-05T02:12:24.238Z,-2.30
2023-01-05T02:15:00.430Z,-2.30
2023-01-05T02:17:34.351Z,-2.30
2023-01-05T02:20:29.396Z,-2.30
2023-01-05T02:23:17.056Z,-2.30
2023-01-05T02:25:55.340Z,-2.40
2023-01-05T02:28:35.571Z,-2.40
2023-01-05T02:31:14.049Z,-2.30
2023-01-05T02:33:55.219Z,-2.40
2023-01-05T02:36:28.881Z,-2.40
2023-01-05T02:39:00.117Z,-2.40
2023-01-05T02:41:32.616Z,-2.40
2023-01-05T02:44:01.680Z,-2.40
2023-01-05T02:46:31.403Z,-2.40
2023-01-05T02:49:00.172Z,-2.40
2023-01-05T02:51:31.144Z,-2.40
2023-01-05T02:54:02.291Z,-2.40
2023-01-05T02:56:33.215Z,-2.40
2023-01-05T02:59:04.170Z,-2.40
2023-01-05T03:01:35.271Z,-2.40
2023-01-05T03:04:06.921Z,-2.40
2023-01-05T03:06:36.717Z,-2.40
2023-01-05T03:09:06.001Z,-2.40
2023-01-05T03:11:53.808Z,-2.50
2023-01-05T03:14:23.071Z,-2.50
2023-01-05T03:16:54.836Z,-2.50
2023-01-05T03:19:39.967Z,-2.50
2023-01-05T03:22:30.709Z,-2.50
2023-01-05T03:25:16.319Z,-2.60
2023-01-05T03:28:02.012Z,-2.60
2023-01-05T03:30:53.211Z,-2.60
2023-01-05T03:33:44.206Z,-2.60
2023-01-05T03:36:13.899Z,-2.60
2023-01-05T03:38:44.052Z,-2.60
2023-01-05T03:41:16.758Z,-2.60
2023-01-05T03:43:44.989Z,-2.60
2023-01-05T03:46:15.270Z,-2.60
2023-01-05T03:48:45.094Z,-2.60
2023-01-05T03:51:14.356Z,-2.60
2023-01-05T03:53:42.554Z,-2.60
2023-01-05T03:56:10.838Z,-2.60
2023-01-05T03:58:39.083Z,-2.60
2023-01-05T04:01:08.870Z,-2.60
2023-01-05T04:03:37.463Z,-2.60
2023-01-05T04:06:07.330Z,-2.60
2023-01-05T04:08:35.806Z,-2.70
2023-01-05T04:11:14.337Z,-2.70
2023-01-05T04:13:42.742Z,-2.80
2023-01-05T04:16:11.244Z,-2.80
2023-01-05T04:18:39.442Z,-2.80
2023-01-05T04:21:09.395Z,-2.90
2023-01-05T04:23:37.684Z,-2.80
2023-01-05T04:26:06.191Z,-2.90
2023-01-05T04:28:34.657Z,-2.90
2023-01-05T04:31:02.866Z,-2.80
2023-01-05T04:33:31.123Z,-2.90
2023-01-05T04:35:59.486Z,-2.90
2023-01-05T04:38:29.253Z,-2.90
2023-01-05T04:40:57.460Z,-2.90
2023-01-05T04:43:25.669Z,-3.00
2023-01-05T04:45:54.022Z,-3.00
2023-01-05T04:48:22.263Z,-3.00
2023-01-05T04:50:53.844Z,-3.00
2023-01-05T04:53:22.727Z,-3.00
2023-01-05T04:55:52.456Z,-3.10
2023-01-05T04:58:20.954Z,-3.10
2023-01-05T05:00:49.745Z,-3.10
2023-01-05T05:03:18.339Z,-3.10
2023-01-05T05:05:46.765Z,-3.10
2023-01-05T05:08:15.076Z,-3.10
2023-01-05T05:10:43.191Z,-3.00
2023-01-05T05:13:12.910Z,-3.00
2023-01-05T05:15:41.277Z,-3.00
2023-01-05T05:18:09.934Z,-3.00
2023-01-05T05:20:38.439Z,-3.10
2023-01-05T05:23:06.652Z,-3.10
2023-01-05T05:25:34.856Z,-3.10
2023-01-05T05:28:03.035Z,-3.10
2023-01-05T05:30:32.688Z,-3.10
2023-01-05T05:33:03.532Z,-3.20
2023-01-05T05:35:31.818Z,-3.20
2023-01-05T05:38:00.215Z,-3.20
2023-01-05T05:40:29.238Z,-3.30
2023-01-05T05:42:57.543Z,-3.30
2023-01-05T05:45:25.725Z,-3.40
2023-01-05T05:47:55.252Z,-3.40
2023-01-05T05:50:23.536Z,-3.40
2023-01-05T05:52:51.756Z,-3.20
2023-01-05T05:55:19.884Z,-3.20
2023-01-05T05:57:50.889Z,-3.30
2023-01-05T06:00:19.333Z,-3.40
2023-01-05T06:02:47.606Z,-3.40
2023-01-05T06:05:17.348Z,-3.50
2023-01-05T06:07:45.611Z,-3.50
2023-01-05T06:10:13.932Z,-3.50
2023-01-05T06:12:42.342Z,-3.50
2023-01-05T06:15:11.204Z,-3.50
2023-01-05T06:17:39.660Z,-3.50
2023-01-05T06:20:08.726Z,-3.50
2023-01-05T06:22:38.445Z,-3.50
2023-01-05T06:25:07.097Z,-3.50
2023-01-05T06:27:35.419Z,-3.50
2023-01-05T06:30:03.701Z,-3.50
2023-01-05T06:32:31.810Z,-3.50
2023-01-05T06:35:00.099Z,-3.60
2023-01-05T06:37:28.231Z,-3.60
2023-01-05T06:39:57.850Z,-3.60
2023-01-05T06:42:26.141Z,-3.60
2023-01-05T06:44:54.584Z,-3.60
2023-01-05T06:47:22.737Z,-3.60
2023-01-05T06:49:50.963Z,-3.60
2023-01-05T06:52:19.378Z,-3.60
2023-01-05T06:54:47.607Z,-3.70
2023-01-05T06:57:17.233Z,-3.60
2023-01-05T06:59:45.501Z,-3.60
2023-01-05T07:02:15.167Z,-3.60
2023-01-05T07:04:43.314Z,-3.70
2023-01-05T07:07:12.912Z,-3.70
2023-01-05T07:09:41.167Z,-3.70
2023-01-05T07:12:09.596Z,-3.70
2023-01-05T07:14:39.544Z,-3.70
2023-01-05T07:17:07.674Z,-3.60
2023-01-05T07:19:35.916Z,-3.70
2023-01-05T07:22:04.091Z,-3.70
2023-01-05T07:24:32.286Z,-3.70
2023-01-05T07:27:05.955Z,-3.70
2023-01-05T07:29:37.720Z,-3.60
2023-01-05T07:32:07.621Z,-3.70
2023-01-05T07:34:35.903Z,-3.70
2023-01-05T07:37:04.023Z,-3.70
2023-01-05T07:39:32.387Z,-3.70
2023-01-05T07:42:00.948Z,-3.60
2023-01-05T07:44:29.196Z,-3.60
2023-01-05T07:46:57.315Z,-3.60
2023-01-05T07:49:27.019Z,-3.60
2023-01-05T07:51:55.183Z,-3.60
2023-01-05T07:54:27.667Z,-3.60
2023-01-05T07:56:55.841Z,-3.60
2023-01-05T07:59:24.155Z,-3.60
2023-01-05T08:01:52.575Z,-3.70
2023-01-05T08:04:20.918Z,-3.70
2023-01-05T08:06:50.634Z,-3.70
2023-01-05T08:09:38.613Z,-3.60
2023-01-05T08:12:07.032Z,-3.70
2023-01-05T08:14:35.340Z,-3.70
2023-01-05T08:17:03.971Z,-3.70
2023-01-05T08:19:32.097Z,-3.70
2023-01-05T08:22:01.941Z,-3.70
2023-01-05T08:24:30.111Z,-3.80
2023-01-05T08:26:58.538Z,-3.70
2023-01-05T08:29:26.704Z,-3.80
2023-01-05T08:31:54.880Z,-3.70
2023-01-05T08:34:23.256Z,-3.70
2023-01-05T08:36:53.662Z,-3.70
2023-01-05T08:39:23.480Z,-3.70
2023-01-05T08:41:53.342Z,-3.70
2023-01-05T08:44:25.793Z,-3.80
2023-01-05T08:46:53.936Z,-3.80
2023-01-05T08:49:22.379Z,-3.80
2023-01-05T08:51:50.506Z,-3.80
2023-01-05T08:54:18.620Z,-3.80
2023-01-05T08:56:50.731Z,-3.80
2023-01-05T08:59:18.992Z,-3.80
2023-01-05T09:01:47.314Z,-3.80
2023-01-05T09:04:15.627Z,-3.90
2023-01-05T09:06:43.965Z,-3.90
2023-01-05T09:09:12.390Z,-3.90
2023-01-05T09:11:41.263Z,-3.90
2023-01-05T09:14:14.637Z,-3.90
2023-01-05T09:17:05.671Z,-4.00
2023-01-05T09:19:31.173Z,-4.00
2023-01-05T09:21:59.614Z,-4.10
2023-01-05T09:24:27.810Z,-4.00
2023-01-05T09:26:55.986Z,-4.00
2023-01-05T09:29:25.677Z,-4.00
2023-01-05T09:31:53.898Z,-4.00
2023-01-05T09:34:22.276Z,-4.00
2023-01-05T09:36:50.445Z,-4.00
2023-01-05T09:39:20.437Z,-4.00
2023-01-05T09:41:50.072Z,-4.00
2023-01-05T09:44:24.539Z,-4.10
2023-01-05T09:46:54.970Z,-4.10
2023-01-05T09:49:24.315Z,-4.00
2023-01-05T09:51:55.845Z,-4.10
2023-01-05T09:54:25.158Z,-4.00
2023-01-05T09:57:10.498Z,-4.00
2023-01-05T09:59:40.201Z,-4.10
2023-01-05T10:02:14.395Z,-4.10
2023-01-05T10:04:42.925Z,-4.10
2023-01-05T10:07:18.128Z,-4.00
2023-01-05T10:09:47.452Z,-4.00
2023-01-05T10:12:37.249Z,-4.00
2023-01-05T10:15:08.871Z,-4.00
2023-01-05T10:17:42.784Z,-4.00
2023-01-05T10:20:18.449Z,-4.00
2023-01-05T10:22:50.777Z,-3.90
2023-01-05T10:25:26.941Z,-3.90
2023-01-05T10:27:58.211Z,-3.90
2023-01-05T10:30:27.687Z,-3.90
2023-01-05T10:33:25.336Z,-3.90
2023-01-05T10:36:05.088Z,-3.90
2023-01-05T10:38:42.072Z,-3.90
2023-01-05T10:41:14.493Z,-3.80
2023-01-05T10:43:49.875Z,-3.80
2023-01-05T10:46:32.099Z,-3.70
2023-01-05T10:49:03.386Z,-3.70
2023-01-05T10:51:33.990Z,-3.70
2023-01-05T10:54:03.356Z,-3.70
2023-01-05T10:56:32.782Z,-3.70
2023-01-05T10:59:15.593Z,-3.70
2023-01-05T11:01:46.043Z,-3.70
2023-01-05T11:04:35.338Z,-3.60
2023-01-05T11:07:05.011Z,-3.70
2023-01-05T11:09:34.040Z,-3.60
2023-01-05T11:12:03.068Z,-3.60
2023-01-05T11:14:34.106Z,-3.60
2023-01-05T11:17:03.253Z,-3.70
2023-01-05T11:19:33.947Z,-3.70
2023-01-05T11:22:03.004Z,-3.70
2023-01-05T11:24:32.678Z,-3.70
2023-01-05T11:27:01.871Z,-3.70
2023-01-05T11:29:30.341Z,-3.70
2023-01-05T11:31:59.792Z,-3.70
2023-01-05T11:34:30.612Z,-3.70
2023-01-05T11:37:07.585Z,-3.80
2023-01-05T11:39:39.599Z,-3.80
2023-01-05T11:42:12.525Z,-3.80
2023-01-05T11:44:41.515Z,-3.70
2023-01-05T11:47:10.307Z,-3.80
2023-01-05T11:49:38.676Z,-3.70
2023-01-05T11:52:25.215Z,-3.70
2023-01-05T11:54:53.494Z,-3.70
2023-01-05T11:57:23.525Z,-3.80
2023-01-05T11:59:52.422Z,-3.80
2023-01-05T12:02:32.427Z,-3.70
2023-01-05T12:05:05.175Z,-3.70
2023-01-05T12:07:35.839Z,-3.70
2023-01-05T12:10:10.479Z,-3.60
2023-01-05T12:12:41.995Z,-3.70
2023-01-05T12:15:28.933Z,-3.70
2023-01-05T12:18:01.491Z,-3.60
2023-01-05T12:20:38.540Z,-3.60
2023-01-05T12:23:16.746Z,-3.70
2023-01-05T12:25:52.171Z,-3.60
2023-01-05T12:28:57.946Z,-3.60
2023-01-05T12:34:39.962Z,-3.70
2023-01-05T12:37:19.482Z,-3.70
2023-01-05T12:40:18.819Z,-3.70
2023-01-05T12:42:57.725Z,-3.70
2023-01-05T12:45:40.881Z,-3.70
2023-01-05T12:48:14.398Z,-3.70
2023-01-05T12:50:45.109Z,-3.80
2023-01-05T12:53:19.234Z,-3.80
2023-01-05T12:55:51.201Z,-3.80
2023-01-05T12:58:22.257Z,-3.90
2023-01-05T13:00:50.902Z,-3.70
2023-01-05T13:03:22.692Z,-3.90
2023-01-05T13:05:56.575Z,-3.90
2023-01-05T13:08:27.631Z,-3.90
2023-01-05T13:11:00.745Z,-3.90
2023-01-05T13:13:31.343Z,-3.90
2023-01-05T13:16:01.787Z,-3.90
2023-01-05T13:18:31.071Z,-4.00
2023-01-05T13:21:01.490Z,-4.00
2023-01-05T13:23:31.823Z,-4.10
2023-01-05T13:26:03.375Z,-4.10
2023-01-05T13:28:32.461Z,-4.10
2023-01-05T13:31:11.378Z,-4.10
2023-01-05T13:34:01.859Z,-4.10
2023-01-05T13:36:38.417Z,-4.20
2023-01-05T13:39:21.327Z,-4.20
2023-01-05T13:42:08.798Z,-4.20
2023-01-05T13:45:00.898Z,-4.10
2023-01-05T13:47:47.446Z,-4.10
2023-01-05T13:50:33.225Z,-4.10
2023-01-05T13:53:05.462Z,-4.10
2023-01-05T13:55:35.184Z,-4.20
2023-01-05T13:58:04.982Z,-4.20
2023-01-05T14:00:36.024Z,-4.10
2023-01-05T14:03:08.006Z,-4.20
2023-01-05T14:05:40.927Z,-4.20
2023-01-05T14:08:18.660Z,-4.10
2023-01-05T14:11:06.850Z,-4.10
2023-01-05T14:13:44.038Z,-4.10
2023-01-05T14:16:39.220Z,-4.10
2023-01-05T14:19:15.223Z,-4.10
2023-01-05T14:22:01.997Z,-4.10
2023-01-05T14:24:32.362Z,-4.10
2023-01-05T14:27:02.258Z,-4.10
2023-01-05T14:29:54.365Z,-4.10
2023-01-05T14:32:26.599Z,-4.10
2023-01-05T14:37:33.346Z,-4.10
2023-01-05T14:40:08.587Z,-4.10
2023-01-05T14:42:39.955Z,-4.10
2023-01-05T14:45:10.605Z,-4.10
2023-01-05T14:47:42.511Z,-4.10
2023-01-05T14:50:25.401Z,-4.20
2023-01-05T14:52:56.266Z,-4.20
2023-01-05T14:55:37.792Z,-4.20
2023-01-05T14:58:11.768Z,-4.10
2023-01-05T15:03:22.376Z,-4.00
2023-01-05T15:05:55.833Z,-4.10
2023-01-05T15:08:33.229Z,-4.00
2023-01-05T15:11:08.617Z,-4.10
2023-01-05T15:14:08.731Z,-4.00
2023-01-05T15:16:46.642Z,-4.10
2023-01-05T15:19:25.297Z,-4.10
2023-01-05T15:22:13.507Z,-4.10
2023-01-05T15:25:01.309Z,-4.20
2023-01-05T15:27:53.175Z,-4.10
2023-01-05T15:30:31.381Z,-4.10
2023-01-05T15:33:05.789Z,-4.20
2023-01-05T15:35:37.367Z,-4.10
2023-01-05T15:38:16.035Z,-4.20
2023-01-05T15:40:44.234Z,-4.30
2023-01-05T15:43:14.462Z,-4.20
2023-01-05T15:45:43.598Z,-4.30
2023-01-05T15:48:14.749Z,-4.20
2023-01-05T15:50:47.251Z,-4.20
2023-01-05T15:53:24.320Z,-4.20
2023-01-05T15:55:53.544Z,-4.20
2023-01-05T15:58:24.200Z,-4.20
2023-01-05T16:01:02.995Z,-4.20
2023-01-05T16:03:33.000Z,-4.30
2023-01-05T16:06:03.382Z,-4.30
2023-01-05T16:08:33.053Z,-4.20
2023-01-05T16:11:02.243Z,-4.20
2023-01-05T16:13:34.017Z,-4.20
2023-01-05T16:16:03.795Z,-4.10
2023-01-05T16:18:35.386Z,-4.20
2023-01-05T16:21:08.611Z,-4.30
2023-01-05T16:23:38.456Z,-4.20
2023-01-05T16:26:07.092Z,-4.20
2023-01-05T16:28:35.255Z,-4.30
2023-01-05T16:31:15.895Z,-4.20
2023-01-05T16:33:46.009Z,-4.20
2023-01-05T16:36:19.622Z,-4.30
2023-01-05T16:38:48.269Z,-4.20
2023-01-05T16:41:21.942Z,-4.20
2023-01-05T16:43:54.817Z,-4.20
2023-01-05T16:46:30.211Z,-4.20
2023-01-05T16:49:00.057Z,-4.20
2023-01-05T16:51:39.971Z,-4.20
2023-01-05T16:54:12.777Z,-4.20
2023-01-05T16:56:48.922Z,-4.20
2023-01-05T16:59:32.682Z,-4.20
2023-01-05T17:02:01.071Z,-4.20
2023-01-05T17:04:32.299Z,-4.30
2023-01-05T17:07:03.183Z,-4.20
2023-01-05T17:09:33.481Z,-4.30
2023-01-05T17:12:01.671Z,-4.20
2023-01-05T17:14:30.011Z,-4.30
2023-01-05T17:17:00.943Z,-4.20
2023-01-05T17:19:29.210Z,-4.20
2023-01-05T17:21:58.279Z,-4.20
2023-01-05T17:24:28.688Z,-4.30
2023-01-05T17:26:56.962Z,-4.30
2023-01-05T17:29:26.292Z,-4.30
2023-01-05T17:31:54.916Z,-4.30
2023-01-05T17:34:23.382Z,-4.30
2023-01-05T17:36:54.507Z,-4.30
2023-01-05T17:39:23.189Z,-4.30
2023-01-05T17:41:52.809Z,-4.40
2023-01-05T17:44:21.165Z,-4.30
2023-01-05T17:46:50.474Z,-4.40
2023-01-05T17:49:22.359Z,-4.30
2023-01-05T17:51:50.442Z,-4.30
2023-01-05T17:54:18.575Z,-4.40
2023-01-05T17:56:46.855Z,-4.40
2023-01-05T17:59:16.548Z,-4.40
2023-01-05T18:04:17.986Z,-4.40
2023-01-05T18:06:46.143Z,-4.40
2023-01-05T18:09:14.257Z,-4.30
2023-01-05T18:11:44.571Z,-4.30
2023-01-05T18:14:12.843Z,-4.40
2023-01-05T18:16:46.441Z,-4.30
2023-01-05T18:21:48.038Z,-4.30
2023-01-05T18:24:16.259Z,-4.40
2023-01-05T18:26:44.569Z,-4.40
2023-01-05T18:29:14.339Z,-4.40
2023-01-05T18:31:43.890Z,-4.50
2023-01-05T18:34:12.004Z,-4.40
2023-01-05T18:36:40.441Z,-4.40
2023-01-05T18:39:08.893Z,-4.50
2023-01-05T18:41:37.016Z,-4.50
2023-01-05T18:44:05.379Z,-4.40
2023-01-05T18:46:33.703Z,-4.50
2023-01-05T18:49:03.576Z,-4.50
2023-01-05T18:51:31.700Z,-4.40
2023-01-05T18:53:59.976Z,-4.40
2023-01-05T18:56:28.192Z,-4.50
2023-01-05T18:58:56.542Z,-4.50
2023-01-05T19:01:25.450Z,-4.50
2023-01-05T19:03:54.775Z,-4.50
2023-01-05T19:06:27.013Z,-4.40
2023-01-05T19:08:55.286Z,-4.40
2023-01-05T19:11:25.791Z,-4.40
2023-01-05T19:13:55.863Z,-4.30
2023-01-05T19:16:24.855Z,-4.30
2023-01-05T19:18:57.327Z,-4.30
2023-01-05T19:21:27.317Z,-4.30
2023-01-05T19:23:56.384Z,-4.20
2023-01-05T19:26:25.090Z,-4.30
2023-01-05T19:28:54.543Z,-4.20
2023-01-05T19:31:23.746Z,-4.20
2023-01-05T19:33:53.200Z,-4.20
2023-01-05T19:36:24.002Z,-4.20
2023-01-05T19:38:53.617Z,-4.20
2023-01-05T19:41:24.675Z,-4.20
2023-01-05T19:43:54.727Z,-4.10
2023-01-05T19:46:23.845Z,-4.10
2023-01-05T19:48:52.172Z,-4.10
2023-01-05T19:51:22.546Z,-4.10
2023-01-05T19:53:56.350Z,-4.20
2023-01-05T19:56:25.618Z,-4.10
2023-01-05T19:58:55.099Z,-4.10
2023-01-05T20:01:25.287Z,-4.00
2023-01-05T20:03:55.167Z,-4.00
2023-01-05T20:06:24.325Z,-4.10
2023-01-05T20:08:55.649Z,-4.10
2023-01-05T20:11:38.028Z,-4.10
2023-01-05T20:14:08.151Z,-4.10
2023-01-05T20:16:36.895Z,-4.10
2023-01-05T20:19:05.634Z,-4.10
2023-01-05T20:21:33.893Z,-4.10
2023-01-05T20:24:02.609Z,-4.10
2023-01-05T20:26:32.443Z,-4.10
2023-01-05T20:29:01.472Z,-4.10
2023-01-05T20:31:30.916Z,-4.00
2023-01-05T20:34:00.481Z,-4.10
2023-01-05T20:36:29.725Z,-4.10
2023-01-05T20:38:58.669Z,-4.10
2023-01-05T20:41:28.053Z,-4.10
2023-01-05T20:43:57.759Z,-4.10
2023-01-05T20:46:27.310Z,-4.10
2023-01-05T20:48:55.841Z,-4.20
2023-01-05T20:51:24.871Z,-4.20
2023-01-05T20:53:53.803Z,-4.10
2023-01-05T20:56:23.122Z,-4.20
2023-01-05T20:58:52.059Z,-4.30
2023-01-05T21:01:22.233Z,-4.30
2023-01-05T21:03:52.941Z,-4.30
2023-01-05T21:06:21.729Z,-4.20
2023-01-05T21:08:50.508Z,-4.20
2023-01-05T21:11:19.994Z,-4.20
2023-01-05T21:13:49.648Z,-4.20
2023-01-05T21:16:19.217Z,-4.20
2023-01-05T21:18:49.230Z,-4.20
2023-01-05T21:21:18.219Z,-4.20
2023-01-05T21:23:46.499Z,-4.20
2023-01-05T21:26:15.889Z,-4.20
2023-01-05T21:28:44.537Z,-4.30
2023-01-05T21:31:14.152Z,-4.20
2023-01-05T21:33:42.967Z,-4.30
2023-01-05T21:36:14.736Z,-4.30
2023-01-05T21:39:00.306Z,-4.30
2023-01-05T21:41:48.825Z,-4.40
2023-01-05T21:44:17.214Z,-4.40
2023-01-05T21:46:45.458Z,-4.50
2023-01-05T21:49:14.470Z,-4.50
2023-01-05T21:52:01.726Z,-4.60
2023-01-05T21:54:47.384Z,-4.60
2023-01-05T21:57:15.829Z,-4.60
2023-01-05T21:59:44.650Z,-4.60
2023-01-05T22:02:12.975Z,-4.60
2023-01-05T22:04:41.624Z,-4.60
2023-01-05T22:07:11.364Z,-4.70
2023-01-05T22:09:39.723Z,-4.70
2023-01-05T22:12:08.780Z,-4.70
2023-01-05T22:14:37.299Z,-4.70
2023-01-05T22:17:06.131Z,-4.70
2023-01-05T22:19:34.314Z,-4.70
2023-01-05T22:22:03.485Z,-4.60
2023-01-05T22:24:33.032Z,-4.60
2023-01-05T22:27:01.349Z,-4.60
2023-01-05T22:29:32.048Z,-4.60
2023-01-05T22:32:02.690Z,-4.60
2023-01-05T22:34:31.334Z,-4.60
2023-01-05T22:36:59.727Z,-4.60
2023-01-05T22:39:28.098Z,-4.50
2023-01-05T22:41:57.822Z,-4.50
2023-01-05T22:44:25.907Z,-4.50
2023-01-05T22:46:54.216Z,-4.60
2023-01-05T22:49:22.537Z,-4.60
2023-01-05T22:51:52.111Z,-4.60
2023-01-05T22:54:20.415Z,-4.60
2023-01-05T22:56:48.712Z,-4.60
2023-01-05T22:59:18.495Z,-4.60
2023-01-05T23:01:47.815Z,-4.60
2023-01-05T23:04:16.505Z,-4.60
2023-01-05T23:06:44.683Z,-4.60
2023-01-05T23:09:14.460Z,-4.60
2023-01-05T23:11:43.387Z,-4.60
2023-01-05T23:14:13.164Z,-4.60
2023-01-05T23:16:43.044Z,-4.50
2023-01-05T23:19:15.821Z,-4.50
2023-01-05T23:21:44.318Z,-4.50
2023-01-05T23:24:12.611Z,-4.50
2023-01-05T23:26:40.817Z,-4.50
2023-01-05T23:29:09.028Z,-4.50
2023-01-05T23:31:39.510Z,-4.60
2023-01-05T23:34:09.112Z,-4.60
2023-01-05T23:36:37.315Z,-4.60
2023-01-05T23:39:05.586Z,-4.70
2023-01-05T23:41:33.875Z,-4.70
2023-01-05T23:44:07.935Z,-4.70
2023-01-05T23:46:36.269Z,-4.70
2023-01-05T23:49:07.798Z,-4.70
2023-01-05T23:51:37.421Z,-4.60
2023-01-05T23:54:05.924Z,-4.60
2023-01-05T23:56:34.093Z,-4.60
2023-01-05T23:59:05.284Z,-4.60
